< < Back
Terminal Aerodrome Forecast


Current Version              Previous Versions:   1  2  3  4  5  6  7  8  9  

Terminal Aerodrome Forecast

533
FTUS44 KMRX 281720
TAFCHA
TAF
KCHA 281720Z 2818/2918 33008KT P6SM FEW050 SCT200
     FM282300 35003KT P6SM SKC
     FM291200 14003KT P6SM SCT250
     FM291700 18006KT P6SM SCT250=



Latest METAR

371
SAUS80 KWBC 291700
MTRCHA
METAR KCHA 291653Z VRB03KT 10SM CLR 11/M11 A3035 RMK AO2 SLP278
T01111106


USA.gov is the U.S. government's official web portal to all federal, state and local government web resources and services.